Crowley, Louisiana
Current Conditions -  °F | °C
As of 2:15 PM on Monday 24 Nov 2014 (Local Time) from K3R7 Reporting Station
Clear Clear  
Wind Chill: 62°   Ceiling: Unl
Heat Index: 62°   Visibility: 10mi
Dew Point: 37°   Wind: 13mph
Humidity: 40%   Direction: 360°N
Pressure: 29.97"   Gusts: NA
Location:  30.21°N, 92.37°W
Report Text: K3R7 242015Z AUTO 36011KT 10SM CLR 17/03 A2997 RMK AO2 T01670030
Loading
Personal Weather Stations






























Interactive Weather Map New forecast layout! Learn more

10-Day Weather Forecast

Advertisements
Track Severe Weather on mobile